Flight Track Log - Related Links

Times and Time Zones

All times are in EST time to prevent confusion due to time zone crossing. See the DAL1179 flight status page for this flight to view local times or setup timezone preferences in your user account.

Time Position Orientation Groundspeed Altitude Reporting Facility
EST Latitude Longitude Course Direction KTS MPH feet Rate Location/Type
Mon 07:21:34 AM 38.7500 -90.3667 122° Southeast 150 173 1,600  Level Gateway (St. Louis) TRACON
Mon 07:22:35 AM 38.7667 -90.4333 288° West 235 270 4,200 2,727 Climbing Gateway (St. Louis) TRACON
Mon 07:23:35 AM 38.7000 -90.4333 180° South 243 280 7,100 2,656 Climbing Gateway (St. Louis) TRACON
Mon 07:24:00 AM 38.5238 -90.0274 130° Southeast  Level FlightAware Approximate
Mon 07:24:46 AM 38.6603 -90.3353 117° Southeast 269 310 10,000  Level Kansas City Center
Mon 07:25:00 AM 38.4517 -89.9138 127° Southeast  Level FlightAware Approximate
Mon 07:25:46 AM 38.6108 -90.2397 123° Southeast 317 365 11,700  Level Kansas City Center
Mon 07:26:00 AM 38.3820 -89.7980 130° Southeast  Level FlightAware Approximate
Mon 07:26:47 AM 38.5494 -90.1253 124° Southeast 374 430 13,600  Level Kansas City Center
Mon 07:27:00 AM 38.3132 -89.6931 122° Southeast  Level FlightAware Approximate
Mon 07:27:47 AM 38.4844 -90.0019 124° Southeast 408 470 16,200  Level Kansas City Center
Mon 07:28:48 AM 38.4181 -89.8767 124° Southeast 421 484 17,900 1,785 Climbing Kansas City Center
Mon 07:29:48 AM 38.3506 -89.7456 123° Southeast 437 503 19,800 2,430 Climbing Kansas City Center
Mon 07:30:49 AM 38.2722 -89.6236 129° Southeast 443 510 22,800 2,380 Climbing Kansas City Center
Mon 07:31:49 AM 38.1836 -89.4972 132° Southeast 428 493 24,600 1,339 Climbing Kansas City Center
Mon 07:32:50 AM 38.1117 -89.3939 131° Southeast 440 506 25,500 843 Climbing Kansas City Center
Mon 07:33:50 AM 38.0156 -89.2564 132° Southeast 464 534 26,300 1,587 Climbing Kansas City Center
Mon 07:34:51 AM 37.9300 -89.1342 132° Southeast 465 535 28,700 1,835 Climbing Kansas City Center
Mon 07:35:51 AM 37.8578 -89.0336 132° Southeast 449 517 30,000 1,140 Climbing Kansas City Center
Mon 07:36:52 AM 37.7686 -88.9008 130° Southeast 449 517 31,000 639 Climbing Kansas City Center
Mon 07:37:53 AM 37.6856 -88.7875 133° Southeast 443 510 31,300 496 Climbing Kansas City Center
Mon 07:38:53 AM 37.6111 -88.6842 132° Southeast 443 510 32,000 873 Climbing Kansas City Center
Mon 07:39:43 AM 37.5347 -88.5786 132° Southeast 451 519 32,900 541 Climbing Memphis Center
Mon 07:40:44 AM 37.4525 -88.4617 132° Southeast 450 518 33,000 50 Climbing Memphis Center
Mon 07:41:44 AM 37.3675 -88.3458 133° Southeast 449 517 33,000  Level Memphis Center
Mon 07:42:45 AM 37.2831 -88.2283 132° Southeast 449 517 33,000  Level Memphis Center
Mon 07:43:45 AM 37.1964 -88.1094 132° Southeast 454 522 33,000  Level Memphis Center
Mon 07:44:46 AM 37.1058 -87.9853 132° Southeast 455 524 33,000  Level Memphis Center
Mon 07:45:47 AM 37.0192 -87.8672 133° Southeast 455 524 33,000  Level Memphis Center
Mon 07:46:47 AM 36.9331 -87.7494 132° Southeast 455 524 33,000  Level Memphis Center
Mon 07:47:48 AM 36.8461 -87.6311 133° Southeast 455 524 33,000  Level Memphis Center
Mon 07:48:49 AM 36.7586 -87.5133 133° Southeast 455 524 33,000  Level Memphis Center
Mon 07:49:49 AM 36.6706 -87.3950 133° Southeast 457 526 33,000  Level Memphis Center
Mon 07:50:50 AM 36.5833 -87.2764 132° Southeast 458 527 33,000  Level Memphis Center
Mon 07:51:51 AM 36.4936 -87.1578 133° Southeast 461 531 33,000  Level Memphis Center
Mon 07:52:51 AM 36.4047 -87.0397 133° Southeast 463 533 33,000  Level Memphis Center
Mon 07:53:52 AM 36.3178 -86.9244 133° Southeast 463 533 33,000  Level Memphis Center
Mon 07:54:52 AM 36.2311 -86.8111 133° Southeast 465 535 33,000  Level Memphis Center
Mon 07:55:53 AM 36.1422 -86.6956 134° Southeast 467 537 33,000  Level Memphis Center
Mon 07:56:54 AM 36.0406 -86.6086 145° Southeast 444 511 33,000  Level Memphis Center
Mon 07:57:55 AM 35.9375 -86.5239 146° Southeast 442 509 33,000  Level Memphis Center
Mon 07:58:55 AM 35.8317 -86.4389 147° Southeast 444 511 33,000  Level Memphis Center
Mon 07:59:56 AM 35.7278 -86.3550 147° Southeast 445 512 33,000  Level Memphis Center
Mon 08:00:57 AM 35.6258 -86.2736 147° Southeast 436 502 33,000  Level Memphis Center
Mon 08:01:58 AM 35.5147 -86.1836 147° Southeast 436 502 33,000 -50 Level Memphis Center
Mon 08:02:58 AM 35.4097 -86.1050 149° Southeast 440 506 32,900 -500 Descending Memphis Center
Mon 08:04:10 AM 35.2867 -86.0564 162° South 421 484 31,900 -818 Descending Atlanta Center
Mon 08:05:10 AM 35.1708 -85.9825 152° Southeast 414 476 31,100 -1,050 Descending Atlanta Center
Mon 08:06:10 AM 35.0764 -85.8839 139° Southeast 436 502 29,800 -1,250 Descending Atlanta Center
Mon 08:07:10 AM 34.9778 -85.7853 141° Southeast 447 514 28,600 -1,400 Descending Atlanta Center
Mon 08:08:10 AM 34.8789 -85.6922 142° Southeast 452 520 27,000 -1,250 Descending Atlanta Center
Mon 08:09:10 AM 34.7778 -85.6117 147° Southeast 457 526 26,100 -950 Descending Atlanta Center
Mon 08:10:10 AM 34.6722 -85.5264 146° Southeast 446 513 25,100 -1,050 Descending Atlanta Center
Mon 08:11:10 AM 34.5711 -85.4464 147° Southeast 446 513 24,000 -1,250 Descending Atlanta Center
Mon 08:12:10 AM 34.4717 -85.3642 146° Southeast 441 507 22,600 -1,450 Descending Atlanta Center
Mon 08:13:10 AM 34.3931 -85.3050 148° Southeast 436 502 21,100 -2,250 Descending Atlanta Center
Mon 08:14:10 AM 34.2917 -85.2231 146° Southeast 414 476 18,100 -2,950 Descending Atlanta Center
Mon 08:15:10 AM 34.1983 -85.1489 147° Southeast 408 470 15,200 -2,050 Descending Atlanta Center
Mon 08:16:10 AM 34.1156 -85.0575 138° Southeast 408 470 14,000 -650 Descending Atlanta Center
Mon 08:17:10 AM 34.0350 -84.9536 133° Southeast 413 475 13,900 -550 Descending Atlanta Center
Mon 08:18:10 AM 33.9564 -84.8528 133° Southeast 413 475 12,900 -950 Descending Atlanta Center
Mon 08:19:10 AM 33.8756 -84.7544 135° Southeast 413 475 12,000 -545 Descending Atlanta Center
Mon 08:20:00 AM 33.8000 -84.6667 136° Southeast 397 457 11,900  Descending Atlanta TRACON
Mon 08:20:54 AM 33.7333 -84.5833 134° Southeast 348 400 12,000 -368 Climbing Atlanta TRACON
Mon 08:21:54 AM 33.7333 -84.4833 90° East 324 373 11,200 -1,053 Descending Atlanta TRACON
Mon 08:22:48 AM 33.7333 -84.3833 90° East 309 356 10,000 -1,421 Descending Atlanta TRACON
Mon 08:23:48 AM 33.7333 -84.3000 90° East 280 322 8,500 -1,700 Descending Atlanta TRACON
Mon 08:24:48 AM 33.7333 -84.2000 90° East 275 316 6,600 -1,450 Descending Atlanta TRACON
Mon 08:25:48 AM 33.7333 -84.1167 90° East 273 314 5,600 -800 Descending Atlanta TRACON
Mon 08:26:48 AM 33.7333 -84.0167 90° East 265 305 5,000 -286 Descending Atlanta TRACON
Mon 08:27:54 AM 33.7000 -83.9500 121° Southeast 255 293 5,000  Level Atlanta TRACON
Mon 08:28:48 AM 33.6667 -83.9833 220° Southwest 176 203 5,000  Level Atlanta TRACON
Mon 08:29:48 AM 33.6500 -84.0333 248° West 167 192 5,000  Level Atlanta TRACON
Mon 08:30:48 AM 33.6500 -84.1000 270° West 168 193 5,000 -53 Level Atlanta TRACON
Mon 08:31:42 AM 33.6500 -84.1500 270° West 166 191 4,900 -316 Descending Atlanta TRACON
Mon 08:32:42 AM 33.6500 -84.2000 270° West 165 190 4,400 -650 Descending Atlanta TRACON
Mon 08:33:42 AM 33.6500 -84.2500 270° West 164 189 3,600 -850 Descending Atlanta TRACON
Mon 08:34:42 AM 33.6500 -84.3000 270° West 152 175 2,700 -810 Descending Atlanta TRACON
Mon 08:35:48 AM 33.6500 -84.3500 270° West 125 144 1,900 -727 Descending Atlanta TRACON

Login

Don't have an account? Register now (free) for customized features, flight alerts, and more!